createdAt,value
2022-12-09T00:03:42.345Z,101147.59
2022-12-09T00:08:40.493Z,101167.13
2022-12-09T00:13:38.482Z,101191.50
2022-12-09T00:18:37.562Z,101179.72
2022-12-09T00:23:34.594Z,101167.34
2022-12-09T00:28:32.380Z,101178.91
2022-12-09T00:33:30.373Z,101116.31
2022-12-09T00:38:28.051Z,101125.00
2022-12-09T00:43:25.393Z,101143.25
2022-12-09T00:48:26.293Z,101086.00
2022-12-09T00:53:23.583Z,101200.31
2022-12-09T00:58:20.930Z,101200.41
2022-12-09T01:03:18.782Z,101196.63
2022-12-09T01:08:17.524Z,101196.91
2022-12-09T01:13:16.498Z,101201.44
2022-12-09T01:18:16.841Z,101207.41
2022-12-09T01:23:17.419Z,101206.94
2022-12-09T01:28:17.611Z,101206.19
2022-12-09T01:33:15.081Z,101208.63
2022-12-09T01:38:12.055Z,101226.97
2022-12-09T01:43:17.578Z,101173.81
2022-12-09T01:48:16.628Z,101213.88
2022-12-09T01:53:15.277Z,101226.72
2022-12-09T01:58:14.944Z,101196.88
2022-12-09T02:03:13.716Z,101205.59
2022-12-09T02:08:14.523Z,101175.19
2022-12-09T02:13:26.345Z,101192.28
2022-12-09T02:18:29.807Z,101192.09
2022-12-09T02:23:33.105Z,101180.03
2022-12-09T02:29:16.119Z,101111.88
2022-12-09T02:34:17.414Z,101156.72
2022-12-09T02:39:24.595Z,101173.00
2022-12-09T02:44:24.337Z,101182.03
2022-12-09T02:49:25.611Z,101184.59
2022-12-09T02:54:24.506Z,101174.53
2022-12-09T02:59:23.226Z,101192.81
2022-12-09T03:04:24.123Z,101200.84
2022-12-09T03:09:27.511Z,101199.31
2022-12-09T03:14:30.152Z,101196.47
2022-12-09T03:19:33.885Z,101150.16
2022-12-09T03:24:35.676Z,101155.59
2022-12-09T03:29:37.487Z,101197.47
2022-12-09T03:34:38.881Z,101169.16
2022-12-09T03:39:38.735Z,101201.44
2022-12-09T03:44:39.624Z,101164.09
2022-12-09T03:49:38.985Z,101186.19
2022-12-09T03:54:42.678Z,101201.81
2022-12-09T03:59:43.158Z,101224.16
2022-12-09T04:04:42.159Z,101226.66
2022-12-09T04:09:39.655Z,101228.63
2022-12-09T04:14:37.177Z,101221.41
2022-12-09T04:19:34.182Z,101204.34
2022-12-09T04:24:32.361Z,101195.22
2022-12-09T04:29:29.648Z,101208.47
2022-12-09T04:34:27.802Z,101152.03
2022-12-09T04:39:25.969Z,101157.50
2022-12-09T04:44:23.908Z,101175.63
2022-12-09T04:49:21.202Z,101195.28
2022-12-09T04:54:19.678Z,101188.75
2022-12-09T04:59:16.956Z,101208.97
2022-12-09T05:04:15.483Z,101175.91
2022-12-09T05:09:13.687Z,101175.75
2022-12-09T05:14:11.863Z,101191.47
2022-12-09T05:19:10.383Z,101241.13
2022-12-09T05:24:08.873Z,101190.00
2022-12-09T05:29:06.494Z,101253.63
2022-12-09T05:34:04.176Z,101244.91
2022-12-09T05:39:06.180Z,101119.13
2022-12-09T05:44:04.152Z,101233.44
2022-12-09T05:49:01.361Z,101256.13
2022-12-09T05:54:02.765Z,101251.72
2022-12-09T05:59:01.941Z,101240.06
2022-12-09T06:04:38.511Z,101153.81
2022-12-09T06:09:36.280Z,101167.22
2022-12-09T06:14:33.717Z,101254.34
2022-12-09T06:19:31.838Z,101266.13
2022-12-09T06:24:30.866Z,101261.63
2022-12-09T06:29:28.234Z,101263.78
2022-12-09T06:34:25.468Z,101236.00
2022-12-09T06:39:23.535Z,101225.75
2022-12-09T06:44:23.852Z,101236.34
2022-12-09T06:49:21.522Z,101236.34
2022-12-09T06:54:18.787Z,101284.13
2022-12-09T06:59:16.839Z,101265.78
2022-12-09T07:04:17.796Z,101286.00
2022-12-09T07:09:17.700Z,101259.47
2022-12-09T07:14:18.394Z,101278.19
2022-12-09T07:19:24.197Z,101292.63
2022-12-09T07:24:22.867Z,101239.06
2022-12-09T07:29:21.602Z,101271.25
2022-12-09T07:34:20.493Z,101236.13
2022-12-09T07:39:21.218Z,101290.59
2022-12-09T07:44:18.731Z,101290.22
2022-12-09T07:49:19.444Z,101266.78
2022-12-09T07:54:21.350Z,101235.69
2022-12-09T07:59:19.103Z,101272.38
2022-12-09T08:04:17.209Z,101223.28
2022-12-09T08:09:17.733Z,101241.75
2022-12-09T08:14:14.995Z,101243.25
2022-12-09T08:19:14.672Z,101182.25
2022-12-09T08:24:19.080Z,101251.22
2022-12-09T08:29:16.835Z,101270.59
2022-12-09T08:34:15.332Z,101247.16
2022-12-09T08:39:14.198Z,101224.63
2022-12-09T08:44:15.301Z,101229.38
2022-12-09T08:49:49.954Z,101245.38
2022-12-09T08:54:56.826Z,101218.69
2022-12-09T08:59:54.457Z,101260.44
2022-12-09T09:04:51.855Z,101233.38
2022-12-09T09:09:49.617Z,101234.94
2022-12-09T09:14:47.699Z,101215.78
2022-12-09T09:19:47.146Z,101227.53
2022-12-09T09:24:59.547Z,101212.22
2022-12-09T09:29:59.440Z,101177.00
2022-12-09T09:34:56.862Z,101122.97
2022-12-09T09:40:21.074Z,101136.44
2022-12-09T09:45:21.397Z,101124.13
2022-12-09T09:50:27.637Z,101119.72
2022-12-09T09:55:44.654Z,101172.63
2022-12-09T10:00:49.253Z,101153.72
2022-12-09T10:05:53.074Z,101065.22
2022-12-09T10:11:01.701Z,101117.47
2022-12-09T10:16:09.373Z,101115.25
2022-12-09T10:21:17.184Z,101138.97
2022-12-09T10:26:19.676Z,101144.56
2022-12-09T10:31:20.402Z,101084.63
2022-12-09T10:36:26.795Z,101072.34
2022-12-09T10:41:59.955Z,101112.19
2022-12-09T10:47:01.588Z,101122.94
2022-12-09T10:52:01.624Z,101077.53
2022-12-09T10:57:23.401Z,101011.13
2022-12-09T11:02:22.983Z,101009.63
2022-12-09T11:07:26.101Z,101107.53
2022-12-09T11:12:39.907Z,101054.47
2022-12-09T11:17:43.124Z,101027.75
2022-12-09T11:22:42.465Z,100967.09
2022-12-09T11:27:44.132Z,101061.44
2022-12-09T11:32:59.782Z,101037.19
2022-12-09T11:37:59.229Z,101028.41
2022-12-09T11:42:58.025Z,101032.97
2022-12-09T11:48:29.863Z,101019.63
2022-12-09T11:53:28.307Z,101031.50
2022-12-09T11:58:28.894Z,101061.34
2022-12-09T12:03:35.152Z,101011.59
2022-12-09T12:08:38.918Z,100969.22
2022-12-09T12:13:40.082Z,100976.53
2022-12-09T12:18:45.252Z,101001.16
2022-12-09T12:23:57.560Z,100996.59
2022-12-09T12:29:07.864Z,101026.53
2022-12-09T12:34:37.307Z,101049.63
2022-12-09T12:39:48.606Z,100993.19
2022-12-09T12:45:10.284Z,101044.78
2022-12-09T12:50:26.572Z,101008.03
2022-12-09T12:55:41.207Z,100980.25
2022-12-09T13:00:51.111Z,101025.25
2022-12-09T13:05:52.551Z,101031.38
2022-12-09T13:10:53.553Z,101019.56
2022-12-09T13:15:54.715Z,100924.88
2022-12-09T13:20:54.536Z,100946.00
2022-12-09T13:26:23.745Z,100977.97
2022-12-09T13:31:29.255Z,100991.09
2022-12-09T13:36:37.130Z,100998.00
2022-12-09T13:41:58.967Z,101000.97
2022-12-09T13:47:27.879Z,100995.97
2022-12-09T13:52:42.965Z,100942.63
2022-12-09T13:57:50.153Z,100999.59
2022-12-09T14:03:01.503Z,100997.19
2022-12-09T14:08:04.412Z,100968.22
2022-12-09T14:13:21.502Z,100974.44
2022-12-09T14:18:32.951Z,100964.81
2022-12-09T14:23:32.116Z,100980.25
2022-12-09T14:29:00.214Z,100964.88
2022-12-09T14:33:57.151Z,100912.31
2022-12-09T14:39:24.157Z,100941.16
2022-12-09T14:44:28.769Z,100964.97
2022-12-09T14:49:29.423Z,100895.72
2022-12-09T14:54:32.370Z,100940.47
2022-12-09T14:59:32.013Z,100934.31
2022-12-09T15:04:31.689Z,100927.56
2022-12-09T15:09:30.114Z,100946.41
2022-12-09T15:14:27.831Z,100941.91
2022-12-09T15:20:01.285Z,100801.06
2022-12-09T15:24:53.024Z,100806.81
2022-12-09T15:29:51.181Z,100807.84
2022-12-09T15:34:53.224Z,100919.16
2022-12-09T15:39:58.862Z,100903.22
2022-12-09T15:45:04.070Z,100896.78
2022-12-09T15:50:10.828Z,100887.34
2022-12-09T15:55:14.645Z,100873.72
2022-12-09T16:00:13.234Z,100906.59
2022-12-09T16:05:11.375Z,100899.50
2022-12-09T16:10:14.276Z,100895.97
2022-12-09T16:15:15.268Z,100843.75
2022-12-09T16:20:22.268Z,100830.78
2022-12-09T16:25:25.583Z,100864.56
2022-12-09T16:30:29.495Z,100768.31
2022-12-09T16:35:39.884Z,100839.38
2022-12-09T16:41:02.365Z,100854.22
2022-12-09T16:46:03.393Z,100865.50
2022-12-09T16:51:12.975Z,100859.44
2022-12-09T16:56:18.965Z,100786.66
2022-12-09T17:01:18.863Z,100841.22
2022-12-09T17:06:18.185Z,100835.31
2022-12-09T17:11:19.816Z,100767.56
2022-12-09T17:16:55.332Z,100783.72
2022-12-09T17:21:55.247Z,100787.94
2022-12-09T17:27:03.158Z,100807.84
2022-12-09T17:32:01.633Z,100776.97
2022-12-09T17:36:59.330Z,100805.28
2022-12-09T17:41:59.676Z,100746.41
2022-12-09T17:47:02.300Z,100708.09
2022-12-09T17:52:00.446Z,100732.75
2022-12-09T17:56:59.315Z,100751.34
2022-12-09T18:01:59.986Z,100764.72
2022-12-09T18:06:57.536Z,100750.34
2022-12-09T18:11:57.614Z,100778.25
2022-12-09T18:16:57.148Z,100746.44
2022-12-09T18:22:05.595Z,100775.81
2022-12-09T18:27:08.832Z,100738.16
2022-12-09T18:32:07.247Z,100764.78
2022-12-09T18:37:13.181Z,100773.75
2022-12-09T18:42:10.163Z,100756.03
2022-12-09T18:47:08.199Z,100740.44
2022-12-09T18:52:05.417Z,100752.16
2022-12-09T18:57:03.288Z,100752.81
2022-12-09T19:02:00.190Z,100700.75
2022-12-09T19:06:59.367Z,100686.53
2022-12-09T19:11:56.552Z,100766.41
2022-12-09T19:16:54.118Z,100649.19
2022-12-09T19:21:52.549Z,100699.94
2022-12-09T19:26:52.955Z,100685.81
2022-12-09T19:31:53.199Z,100710.03
2022-12-09T19:36:52.517Z,100716.47
2022-12-09T19:41:51.463Z,100726.41
2022-12-09T19:46:48.715Z,100742.22
2022-12-09T19:51:46.599Z,100716.41
2022-12-09T19:56:44.131Z,100683.53
2022-12-09T20:01:43.763Z,100639.88
2022-12-09T20:06:41.960Z,100703.66
2022-12-09T20:11:39.932Z,100712.94
2022-12-09T20:16:41.577Z,100651.69
2022-12-09T20:21:39.899Z,100691.78
2022-12-09T20:26:38.187Z,100673.16
2022-12-09T20:31:37.215Z,100703.72
2022-12-09T20:36:36.708Z,100700.28
2022-12-09T20:41:33.614Z,100676.69
2022-12-09T20:46:35.035Z,100694.72
2022-12-09T20:51:36.829Z,100708.75
2022-12-09T20:56:34.947Z,100699.22
2022-12-09T21:01:45.208Z,100655.63
2022-12-09T21:06:43.151Z,100675.13
2022-12-09T21:11:40.433Z,100633.13
2022-12-09T21:16:42.659Z,100577.44
2022-12-09T21:21:42.266Z,100640.50
2022-12-09T21:26:40.658Z,100564.19
2022-12-09T21:31:40.201Z,100656.34
2022-12-09T21:36:40.245Z,100620.72
2022-12-09T21:41:37.715Z,100625.97
2022-12-09T21:46:36.772Z,100643.56
2022-12-09T21:51:34.784Z,100631.03
2022-12-09T21:56:35.122Z,100588.88
2022-12-09T22:01:34.060Z,100643.56
2022-12-09T22:06:31.690Z,100529.47
2022-12-09T22:11:31.100Z,100590.91
2022-12-09T22:16:30.730Z,100608.38
2022-12-09T22:21:30.311Z,100601.00
2022-12-09T22:26:28.962Z,100597.13
2022-12-09T22:31:28.297Z,100571.94
2022-12-09T22:36:28.098Z,100538.00
2022-12-09T22:41:27.492Z,100489.31
2022-12-09T22:46:27.715Z,100547.06
2022-12-09T22:51:28.581Z,100503.03
2022-12-09T22:56:29.074Z,100513.41
2022-12-09T23:01:30.336Z,100532.03
2022-12-09T23:06:28.781Z,100555.72
2022-12-09T23:11:27.892Z,100520.34
2022-12-09T23:16:26.619Z,100545.97
2022-12-09T23:21:25.863Z,100504.16
2022-12-09T23:26:25.090Z,100540.81
2022-12-09T23:31:26.242Z,100519.34
2022-12-09T23:36:26.593Z,100529.59
2022-12-09T23:41:24.900Z,100447.13
2022-12-09T23:46:25.388Z,100531.00
2022-12-09T23:51:24.810Z,100488.06
2022-12-09T23:56:23.863Z,100502.69
